Arvidsjaur, Sweden

3:33 PM CET on February 13, 2016 (GMT +0100)
Arvidsjaur | | Change Station
CLOSE
Current Station
Airport
Location: Arvidsjaur Airport,
Elevation: 1243 ft
Nearby Weather Stations

Elev 1243 ft 65.59 °N, 19.28 °E | Updated 13 minutes ago

Light Snow
Light Snow
25 °F
Feels Like 18 °F
N
6
Wind Variable Wind from East

Today
High -- | Low -- °F
--% Chance of Precip.
Yesterday
High -- | Low -- °F
Precip. -- in
Pressure 29.44 in
Visibility 5.6 miles
Clouds Scattered Clouds 600 ft
Overcast 1000 ft
Windchill 18 °F
Dew Point 25 °F
Humidity 100%
Rainfall 0.00 in
Snow Depth Not available.
7:55 AM 3:59 PM
Waxing Crescent, 31% visible
METAR ESNX 131420Z AUTO 08005KT 9000NDV -SN SCT006/// OVC010/// M04/M04 Q0997
Pressure 29.44 in
Visibility 5.6 miles
Clouds Scattered Clouds 600 ft
Overcast 1000 ft
Windchill 18 °F
Dew Point 25 °F
Humidity 100%
Rainfall 0.00 in
Snow Depth Not available.
7:55 AM 3:59 PM
Waxing Crescent, 31% visible
METAR ESNX 131420Z AUTO 08005KT 9000NDV -SN SCT006/// OVC010/// M04/M04 Q0997

10-Day Weather Forecast

Almanac

Astronomy

Feb. 13, 2016 Rise Set
Actual Time
Civil Twilight
Nautical Twilight
Astronomical Twilight
Moon
Length of Visible Light
Length of Day
Tomorrow will be .
, % of the Moon is Illuminated

Today's Extremes

Country Highs Country Lows

Community

WunderPhotos

Upload Photos

1,892,558 photos uploaded!

WunderBlog® & News

Nearby

Air Quality

  Air Quality AQ Index Pollutant
Not available.

Snow Depth

Station Depth Elevation

Earthquake Activity

City Distance Mag. Time & Date
Minimum magnitude displayed is 2.5.

Coastal Water Temperatures

Place Temperature

Stations

Nearby Weather Stations

Station Location Temp. Windchill Dew Point Humidity Wind Precip. Elev Updated Type